»·PEaware :: N51254 KSBA-KBUR

N51254 :: KSBA-KBUR

FLIGHT INFORMATION

Flight Status: Arrived
Operator: Privately registered:
United States
More flights under this callsign
Pilot: Hasan B. (9605)
Aircraft: CESSNA 172 SKYHAWK
(C172)
More flights by this aircraft type
Origin: KSBA Santa Barbara Mun
United States
Destination: KBUR Bob Hope-Burbank
United States
More flights between these airports :: More routes between these airports
Route: +
File this flight plan on PilotEdge
Remarks:
Altitude:
(Current/Filed)
0ft
Speed:
(Current/Filed)
0kts
Departed: 04-Oct-18 03:33 PM
Arrived: 04-Oct-18 04:32 PM
Distance/Time
Traveled:
74nm/0:59
Distance/Time
To Go:
Arrived

Flight Plot

Page will automatically refresh every two minutes.


Map Options




Map Legend


Flown Route
Filed Route
Departure Airport
Arrival Airport
Navaid (VOR, NDB)
Fix

Horizontal Profiles

Position Reports

Time Latitude Longitude Heading Altitude Ground
Speed
04-Oct-18 15:24 34.422280 -119.836468 303 12ft 0kts
04-Oct-18 15:25 34.422280 -119.836468 303 12ft 0kts
04-Oct-18 15:26 34.422280 -119.836468 303 12ft 0kts
04-Oct-18 15:27 34.422280 -119.836468 303 12ft 0kts
04-Oct-18 15:28 34.422280 -119.836468 303 12ft 0kts
04-Oct-18 15:29 34.423107 -119.837327 350 12ft 9kts
04-Oct-18 15:30 34.426362 -119.838253 2 11ft 18kts
04-Oct-18 15:31 34.426785 -119.835555 74 10ft 11kts
04-Oct-18 15:32 34.427012 -119.835161 14 10ft 6kts
04-Oct-18 15:33 34.427036 -119.835153 14 10ft 0kts
04-Oct-18 15:34 34.427840 -119.837303 267 12ft 34kts
04-Oct-18 15:35 34.427409 -119.855059 265 404ft 85kts
04-Oct-18 15:36 34.425232 -119.876245 258 1050ft 86kts
04-Oct-18 15:37 34.414439 -119.889981 174 1467ft 89kts
04-Oct-18 15:38 34.404001 -119.872693 98 1503ft 99kts
04-Oct-18 15:39 34.399859 -119.849067 104 1451ft 102kts
04-Oct-18 15:40 34.396146 -119.824578 99 1401ft 103kts
04-Oct-18 15:41 34.392968 -119.800026 99 1383ft 99kts
04-Oct-18 15:42 34.389544 -119.775848 97 1394ft 96kts
04-Oct-18 15:43 34.386622 -119.753898 97 1648ft 94kts
04-Oct-18 15:44 34.383677 -119.730224 98 2224ft 94kts
04-Oct-18 15:45 34.379915 -119.707164 98 2757ft 95kts
04-Oct-18 15:46 34.375486 -119.684032 94 3265ft 96kts
04-Oct-18 15:47 34.373933 -119.660095 93 3523ft 107kts
04-Oct-18 15:48 34.372384 -119.634383 94 3548ft 115kts
04-Oct-18 15:49 34.370735 -119.608522 91 3588ft 116kts
04-Oct-18 15:50 34.368915 -119.582389 98 3559ft 119kts
04-Oct-18 15:51 34.363899 -119.546974 101 3498ft 121kts
04-Oct-18 15:52 34.360355 -119.520375 98 3500ft 119kts
04-Oct-18 15:53 34.355535 -119.483958 97 3506ft 119kts
04-Oct-18 15:54 34.352284 -119.453499 96 3551ft 117kts
04-Oct-18 15:55 34.348329 -119.427475 102 3531ft 120kts
04-Oct-18 15:56 34.338224 -119.379860 100 3471ft 120kts
04-Oct-18 15:57 34.332600 -119.334049 100 3473ft 119kts
04-Oct-18 15:58 34.323791 -119.287497 102 3449ft 119kts
04-Oct-18 15:59 34.317133 -119.240375 97 3463ft 118kts
04-Oct-18 16:00 34.315047 -119.193206 93 3481ft 117kts
04-Oct-18 16:01 34.308845 -119.146118 99 3497ft 118kts
04-Oct-18 16:02 34.302736 -119.096673 99 3461ft 120kts
04-Oct-18 16:03 34.297029 -119.057358 99 3452ft 119kts
04-Oct-18 16:04 34.294110 -119.032870 97 3475ft 118kts
04-Oct-18 16:05 34.291037 -119.009167 98 3484ft 118kts
04-Oct-18 16:06 34.288266 -118.984705 99 3485ft 119kts
04-Oct-18 16:07 34.284780 -118.961575 100 3492ft 118kts
04-Oct-18 16:08 34.278539 -118.924527 99 3510ft 118kts
04-Oct-18 16:09 34.271408 -118.879824 103 3530ft 118kts
04-Oct-18 16:10 34.266534 -118.856276 102 3560ft 117kts
04-Oct-18 16:11 34.262555 -118.833407 102 3539ft 120kts
04-Oct-18 16:12 34.257639 -118.810286 105 3506ft 121kts
04-Oct-18 16:13 34.253227 -118.787238 102 3509ft 120kts
04-Oct-18 16:14 34.247165 -118.764472 111 3491ft 120kts
04-Oct-18 16:15 34.240865 -118.741661 106 3487ft 120kts
04-Oct-18 16:16 34.234454 -118.718711 110 3473ft 120kts
04-Oct-18 16:17 34.227247 -118.697076 110 3447ft 120kts
04-Oct-18 16:18 34.220975 -118.675046 105 3452ft 119kts
04-Oct-18 16:19 34.218030 -118.652872 93 3473ft 118kts
04-Oct-18 16:20 34.216284 -118.631120 97 3462ft 119kts
04-Oct-18 16:21 34.214133 -118.610122 98 3433ft 120kts
04-Oct-18 16:22 34.212144 -118.588646 98 3418ft 120kts
04-Oct-18 16:23 34.211112 -118.567043 92 3368ft 121kts
04-Oct-18 16:24 34.209701 -118.548881 98 3168ft 95kts
04-Oct-18 16:25 34.205853 -118.532280 109 2888ft 98kts
04-Oct-18 16:26 34.202143 -118.516072 98 2737ft 99kts
04-Oct-18 16:27 34.200093 -118.498765 99 2700ft 99kts
04-Oct-18 16:28 34.198558 -118.482040 94 2557ft 93kts
04-Oct-18 16:29 34.197822 -118.452414 88 2139ft 92kts
04-Oct-18 16:30 34.198782 -118.419264 91 1673ft 92kts
04-Oct-18 16:31 34.198370 -118.402402 89 1384ft 96kts
04-Oct-18 16:32 34.198179 -118.387168 87 1190ft 64kts
04-Oct-18 16:33 34.197977 -118.375665 90 901ft 62kts
04-Oct-18 16:34 34.197863 -118.366361 89 724ft 23kts
04-Oct-18 16:35 34.197107 -118.364757 186 719ft 0kts
04-Oct-18 16:36 34.196559 -118.365059 175 719ft 11kts
04-Oct-18 16:37 34.196499 -118.365041 154 719ft 0kts

Navigation Log

Ident Type
1. KSBA Airport
2. KBUR Airport